Time;durP1;ratioP1;P1;durP2;ratioP2;P2;SDS_P1;SDS_P2;PMS_P1;PMS_P2;Temp;Humidity;BMP_temperature;BMP_pressure;BME280_temperature;BME280_humidity;BME280_pressure;Samples;Min_cycle;Max_cycle;Signal;HPM_P1;HPM_P2
2021/12/13 00:00:00;;;;;;;17.58;8.63;;;4.70;99.90;;;;;;5084705;28;20054;-86
2021/12/13 00:02:31;;;;;;;16.67;7.60;;;4.70;99.90;;;;;;5061736;28;20021;-86
2021/12/13 00:05:27;;;;;;;23.25;9.57;;;4.70;99.90;;;;;;5048905;28;20079;-86
2021/12/13 00:08:01;;;;;;;18.90;8.23;;;4.80;99.90;;;;;;5039311;28;20532;-85
2021/12/13 00:10:52;;;;;;;21.73;8.48;;;4.80;99.90;;;;;;5032758;28;20111;-85
2021/12/13 00:13:23;;;;;;;20.65;8.07;;;4.80;99.90;;;;;;5054892;28;20033;-86
2021/12/13 00:15:59;;;;;;;21.77;8.07;;;4.80;99.90;;;;;;5043315;28;20079;-85
2021/12/13 00:18:34;;;;;;;20.33;9.18;;;4.80;99.90;;;;;;5065693;28;20028;-85
2021/12/13 00:21:13;;;;;;;20.70;8.40;;;4.80;99.90;;;;;;5069937;28;20033;-87
2021/12/13 00:24:01;;;;;;;22.10;8.57;;;4.70;99.90;;;;;;5031797;28;20433;-86
2021/12/13 00:26:31;;;;;;;21.00;8.60;;;4.70;99.90;;;;;;5062081;28;20020;-86
2021/12/13 00:28:58;;;;;;;16.73;7.50;;;4.80;99.90;;;;;;5035763;28;20041;-86
2021/12/13 00:31:34;;;;;;;25.08;9.18;;;4.80;99.90;;;;;;5051448;28;20643;-86
2021/12/13 00:34:31;;;;;;;21.15;8.80;;;4.80;99.90;;;;;;5066166;28;20341;-86
2021/12/13 00:37:21;;;;;;;19.13;8.50;;;4.80;99.90;;;;;;5053372;28;20123;-86
2021/12/13 00:40:12;;;;;;;20.42;8.05;;;4.80;99.90;;;;;;5072706;28;20032;-87
2021/12/13 00:42:45;;;;;;;20.08;7.82;;;4.80;99.90;;;;;;5078483;28;20016;-86
2021/12/13 00:45:16;;;;;;;27.38;9.20;;;4.80;99.90;;;;;;5075619;28;20063;-86
2021/12/13 00:47:44;;;;;;;21.15;8.35;;;4.80;99.90;;;;;;5054578;28;20029;-85
2021/12/13 00:50:25;;;;;;;23.05;8.98;;;4.80;99.90;;;;;;5055322;28;20144;-86
2021/12/13 00:52:53;;;;;;;23.48;10.05;;;4.80;99.90;;;;;;5067834;28;20017;-86
2021/12/13 00:55:29;;;;;;;18.67;8.77;;;4.80;99.90;;;;;;5051021;28;20017;-86
2021/12/13 00:58:17;;;;;;;21.92;8.88;;;4.80;99.90;;;;;;5062781;28;20032;-87
2021/12/13 01:00:51;;;;;;;25.60;9.68;;;4.80;99.90;;;;;;5055623;28;20067;-86
2021/12/13 01:03:34;;;;;;;19.55;8.32;;;4.80;99.90;;;;;;5051523;28;20025;-87
2021/12/13 01:06:24;;;;;;;25.92;9.60;;;4.80;99.90;;;;;;5061891;28;20124;-86
2021/12/13 01:09:18;;;;;;;25.92;8.77;;;4.80;99.90;;;;;;5065048;28;20024;-86
2021/12/13 01:11:50;;;;;;;20.42;8.73;;;4.80;99.90;;;;;;5081574;28;20021;-86
2021/12/13 01:14:28;;;;;;;23.48;8.75;;;4.80;99.90;;;;;;5055383;28;20036;-86
2021/12/13 01:17:05;;;;;;;21.33;9.13;;;4.80;99.90;;;;;;5069865;28;20047;-86
2021/12/13 01:19:56;;;;;;;21.20;8.90;;;4.80;99.90;;;;;;5044174;28;20365;-86
2021/12/13 01:22:45;;;;;;;;;;;4.80;99.90;;;;;;5067446;28;20057;-86
2021/12/13 01:25:41;;;;;;;19.38;7.22;;;4.80;99.90;;;;;;5057193;28;19909;-86
2021/12/13 01:28:10;;;;;;;18.38;8.40;;;4.80;99.90;;;;;;5063237;28;20032;-86
2021/12/13 01:30:42;;;;;;;18.17;8.23;;;4.80;99.90;;;;;;5062895;28;20071;-85
2021/12/13 01:33:11;;;;;;;17.55;8.07;;;4.80;99.90;;;;;;5034419;28;20409;-85
2021/12/13 01:35:43;;;;;;;23.20;8.52;;;4.80;99.90;;;;;;5032620;28;20128;-86
2021/12/13 01:38:16;;;;;;;19.38;7.60;;;4.80;99.90;;;;;;5049355;28;20478;-86
2021/12/13 01:40:48;;;;;;;20.20;8.73;;;4.80;99.90;;;;;;5065694;28;20036;-85
2021/12/13 01:43:28;;;;;;;18.23;8.13;;;4.80;99.90;;;;;;5068649;28;20032;-86
2021/12/13 01:45:57;;;;;;;17.83;7.57;;;4.80;99.90;;;;;;5062362;28;20041;-86
2021/12/13 01:48:32;;;;;;;20.27;8.75;;;4.80;99.90;;;;;;5043781;28;20032;-85
2021/12/13 01:51:05;;;;;;;21.30;8.23;;;4.80;99.90;;;;;;5049955;28;20040;-86
2021/12/13 01:53:53;;;;;;;16.52;7.30;;;4.80;99.90;;;;;;5043377;28;20135;-87
2021/12/13 02:02:29;;;;;;;20.42;7.78;;;4.80;99.90;;;;;;5067918;28;20107;-86
2021/12/13 02:05:00;;;;;;;15.68;7.13;;;4.80;99.90;;;;;;5053651;28;20037;-86
2021/12/13 02:07:34;;;;;;;15.95;7.78;;;4.80;99.90;;;;;;5057265;28;20120;-87
2021/12/13 02:10:00;;;;;;;19.08;7.32;;;4.80;99.90;;;;;;5049471;28;20093;-87
2021/12/13 02:12:29;;;;;;;15.63;7.07;;;4.80;99.90;;;;;;5060237;28;20064;-86
2021/12/13 02:17:44;;;;;;;20.27;8.15;;;4.80;99.90;;;;;;5069319;28;20085;-86
2021/12/13 02:20:18;;;;;;;23.65;9.05;;;4.80;99.90;;;;;;5048410;28;20409;-86
2021/12/13 02:22:47;;;;;;;16.13;7.13;;;4.80;99.90;;;;;;5069307;28;20223;-86
2021/12/13 02:25:35;;;;;;;16.92;8.00;;;4.80;99.90;;;;;;5062159;28;20115;-86
2021/12/13 02:28:00;;;;;;;18.08;7.47;;;4.80;99.90;;;;;;5043122;28;20125;-86
2021/12/13 02:30:35;;;;;;;18.83;7.45;;;4.80;99.90;;;;;;5051172;28;20431;-86
2021/12/13 02:33:04;;;;;;;16.88;6.82;;;4.80;99.90;;;;;;5068972;28;20025;-86
2021/12/13 02:35:39;;;;;;;15.57;7.57;;;4.80;99.90;;;;;;5051697;28;20094;-86
2021/12/13 02:38:08;;;;;;;15.98;7.25;;;4.80;99.90;;;;;;5049981;28;20028;-86
2021/12/13 02:40:35;;;;;;;19.23;7.68;;;4.80;99.90;;;;;;5043703;28;20451;-86
2021/12/13 02:43:01;;;;;;;18.55;7.85;;;4.80;99.90;;;;;;5083979;28;20521;-86
2021/12/13 02:45:42;;;;;;;18.35;8.00;;;4.80;99.90;;;;;;5068359;28;20633;-87
2021/12/13 02:48:10;;;;;;;17.85;7.13;;;4.80;99.90;;;;;;5028003;28;20075;-86
2021/12/13 02:50:46;;;;;;;25.75;7.95;;;4.80;99.90;;;;;;5066447;28;20028;-86
2021/12/13 02:53:15;;;;;;;16.73;7.55;;;4.80;99.90;;;;;;5085631;28;20037;-86
2021/12/13 02:55:41;;;;;;;20.42;8.45;;;4.80;99.90;;;;;;5066709;28;20131;-85
2021/12/13 02:58:10;;;;;;;16.60;7.38;;;4.80;99.90;;;;;;5049234;28;20119;-86
2021/12/13 03:01:01;;;;;;;17.38;7.00;;;4.80;99.90;;;;;;5044501;28;20025;-87
2021/12/13 03:03:31;;;;;;;16.88;7.65;;;4.80;99.90;;;;;;5062278;28;20029;-86
2021/12/13 03:06:00;;;;;;;16.97;7.60;;;4.70;99.90;;;;;;5049350;28;20052;-85
2021/12/13 03:08:30;;;;;;;16.80;7.13;;;4.70;99.90;;;;;;5058033;28;20037;-87
2021/12/13 03:11:01;;;;;;;17.63;7.63;;;4.70;99.90;;;;;;5057996;28;20063;-87
2021/12/13 03:13:30;;;;;;;13.68;6.35;;;4.70;99.90;;;;;;5048668;28;20041;-86
2021/12/13 03:16:04;;;;;;;19.38;7.57;;;4.70;99.90;;;;;;5048120;28;20075;-86
2021/12/13 03:18:45;;;;;;;17.52;7.65;;;4.70;99.90;;;;;;5048419;28;20527;-86
2021/12/13 03:21:36;;;;;;;14.32;6.63;;;4.70;99.90;;;;;;5050421;28;20468;-86
2021/12/13 03:24:36;;;;;;;13.48;6.63;;;4.70;99.90;;;;;;5073235;28;20029;-86
2021/12/13 03:27:08;;;;;;;14.57;6.28;;;4.70;99.90;;;;;;5065429;28;20055;-86
2021/12/13 03:29:53;;;;;;;16.65;7.28;;;4.70;99.90;;;;;;5051289;28;20036;-87
2021/12/13 03:32:21;;;;;;;16.17;7.22;;;4.70;99.90;;;;;;5075526;28;20093;-86
2021/12/13 03:35:05;;;;;;;15.85;6.90;;;4.70;99.90;;;;;;5042261;28;20424;-86
2021/12/13 03:37:32;;;;;;;15.85;6.38;;;4.70;99.90;;;;;;5054136;28;20042;-86
2021/12/13 03:40:02;;;;;;;16.85;7.05;;;4.70;99.90;;;;;;5051689;28;20041;-86
2021/12/13 03:42:34;;;;;;;23.98;7.75;;;4.70;99.90;;;;;;5039074;28;20032;-86
2021/12/13 03:45:07;;;;;;;17.33;7.45;;;4.70;99.90;;;;;;5063016;28;20068;-86
2021/12/13 03:47:38;;;;;;;18.65;7.82;;;4.70;99.90;;;;;;5054213;28;20035;-86
2021/12/13 03:50:11;;;;;;;17.65;8.25;;;4.70;99.90;;;;;;5048774;28;20099;-86
2021/12/13 03:52:42;;;;;;;17.60;7.47;;;4.70;99.90;;;;;;5031651;28;20059;-86
2021/12/13 03:55:10;;;;;;;20.42;7.15;;;4.70;99.90;;;;;;5044852;28;20117;-86
2021/12/13 03:57:42;;;;;;;17.75;7.97;;;4.60;99.90;;;;;;5055152;28;20039;-85
2021/12/13 04:00:12;;;;;;;19.50;7.95;;;4.70;99.90;;;;;;5032119;28;20033;-86
2021/12/13 04:02:40;;;;;;;16.93;6.57;;;4.70;99.90;;;;;;5042724;28;20029;-86
2021/12/13 04:05:11;;;;;;;19.63;7.47;;;4.70;99.90;;;;;;5036259;28;20090;-87
2021/12/13 04:07:50;;;;;;;15.13;6.53;;;4.60;99.90;;;;;;5065410;28;20102;-85
2021/12/13 04:10:39;;;;;;;17.02;6.88;;;4.60;99.90;;;;;;5067627;28;20032;-87
2021/12/13 04:13:11;;;;;;;22.08;6.65;;;4.60;99.90;;;;;;5066249;28;20079;-86
2021/12/13 04:15:56;;;;;;;18.42;7.38;;;4.60;99.90;;;;;;5047463;28;20112;-85
2021/12/13 04:21:32;;;;;;;19.08;7.50;;;4.60;99.90;;;;;;5036599;28;20523;-86
2021/12/13 04:24:01;;;;;;;19.40;6.57;;;4.60;99.90;;;;;;5082201;28;20036;-85
2021/12/13 04:26:28;;;;;;;16.70;6.00;;;4.60;99.90;;;;;;5050667;28;20029;-86
2021/12/13 04:28:58;;;;;;;14.82;6.53;;;4.60;99.90;;;;;;5070746;28;20051;-86
2021/12/13 04:31:36;;;;;;;18.73;7.13;;;4.60;99.90;;;;;;5071617;28;20739;-85
2021/12/13 04:34:04;;;;;;;19.20;7.00;;;4.70;99.90;;;;;;5069338;28;20397;-87
2021/12/13 04:36:35;;;;;;;23.67;6.38;;;4.60;99.90;;;;;;5035560;28;20489;-85
2021/12/13 04:39:04;;;;;;;16.33;7.38;;;4.60;99.90;;;;;;5058221;28;20066;-86
2021/12/13 04:41:48;;;;;;;18.73;7.37;;;4.60;99.90;;;;;;5061546;28;20397;-86
2021/12/13 04:44:29;;;;;;;20.38;7.30;;;4.60;99.90;;;;;;5077591;28;20033;-87
2021/12/13 04:46:56;;;;;;;20.08;6.93;;;4.60;99.90;;;;;;5067020;28;20068;-88
2021/12/13 04:49:24;;;;;;;26.95;7.85;;;4.60;99.90;;;;;;5052135;28;20738;-86
2021/12/13 04:52:05;;;;;;;31.50;7.32;;;4.60;99.90;;;;;;5035420;28;20033;-85
2021/12/13 04:54:35;;;;;;;20.25;7.55;;;4.60;99.90;;;;;;5066808;28;20036;-85
2021/12/13 04:57:02;;;;;;;19.02;6.90;;;4.60;99.90;;;;;;5037223;28;20063;-85
2021/12/13 04:59:29;;;;;;;23.42;6.95;;;4.60;99.90;;;;;;5067390;28;20036;-86
2021/12/13 05:01:58;;;;;;;28.27;7.97;;;4.60;99.90;;;;;;5017713;28;20044;-85
2021/12/13 05:04:25;;;;;;;21.80;6.95;;;4.60;99.90;;;;;;5034617;28;20116;-87
2021/12/13 05:06:52;;;;;;;17.92;6.65;;;4.60;99.90;;;;;;5033906;28;20127;-86
2021/12/13 05:09:20;;;;;;;22.33;7.63;;;4.60;99.90;;;;;;5061836;28;20112;-87
2021/12/13 05:12:13;;;;;;;19.70;7.68;;;4.60;99.90;;;;;;5051353;28;20036;-87
2021/12/13 05:14:42;;;;;;;27.48;8.15;;;4.60;99.90;;;;;;5036581;28;20036;-85
2021/12/13 05:17:15;;;;;;;42.63;8.20;;;4.60;99.90;;;;;;5051158;28;20486;-85
2021/12/13 05:19:53;;;;;;;21.98;8.00;;;4.60;99.90;;;;;;5051445;28;20371;-86
2021/12/13 05:22:20;;;;;;;17.65;7.10;;;4.60;99.90;;;;;;5048585;28;20024;-86
2021/12/13 05:24:55;;;;;;;38.90;8.32;;;4.60;99.90;;;;;;5034979;28;20036;-85
2021/12/13 05:27:29;;;;;;;20.38;8.50;;;4.60;99.90;;;;;;5046618;28;20033;-86
2021/12/13 05:30:11;;;;;;;30.90;7.78;;;4.60;99.90;;;;;;5044938;28;20504;-85
2021/12/13 05:32:41;;;;;;;18.98;7.28;;;4.60;99.90;;;;;;5050252;28;20408;-86
2021/12/13 05:35:24;;;;;;;23.35;7.18;;;4.60;99.90;;;;;;5034829;28;20025;-85
2021/12/13 05:37:56;;;;;;;28.70;8.25;;;4.60;99.90;;;;;;5069595;28;20047;-85
2021/12/13 05:40:43;;;;;;;24.48;7.30;;;4.60;99.90;;;;;;5070396;28;20108;-86
2021/12/13 05:43:40;;;;;;;28.75;6.85;;;4.60;99.90;;;;;;5082331;28;20024;-86
2021/12/13 05:46:24;;;;;;;35.67;7.18;;;4.60;99.90;;;;;;5052316;28;20678;-85
2021/12/13 05:48:55;;;;;;;18.85;7.68;;;4.60;99.90;;;;;;5037838;28;20127;-86
2021/12/13 05:51:34;;;;;;;17.27;6.70;;;4.60;99.90;;;;;;5062521;28;20036;-85
2021/12/13 05:54:21;;;;;;;20.90;7.68;;;4.60;99.90;;;;;;5030165;28;20061;-85
2021/12/13 05:56:51;;;;;;;17.60;6.93;;;4.60;99.90;;;;;;5045134;28;20027;-86
2021/12/13 05:59:21;;;;;;;15.90;6.18;;;4.60;99.90;;;;;;5051545;28;20476;-85
2021/12/13 06:01:57;;;;;;;17.70;6.45;;;4.60;99.90;;;;;;5069324;28;20493;-85
2021/12/13 06:04:36;;;;;;;16.83;6.53;;;4.60;99.90;;;;;;5069411;28;20067;-85
2021/12/13 06:07:23;;;;;;;17.20;6.85;;;4.60;99.90;;;;;;5061780;28;20053;-86
2021/12/13 06:09:52;;;;;;;17.58;6.32;;;4.60;99.90;;;;;;5051491;28;20070;-85
2021/12/13 06:12:31;;;;;;;16.88;6.22;;;4.60;99.90;;;;;;5086009;28;20037;-85
2021/12/13 06:15:10;;;;;;;17.27;6.38;;;4.60;99.90;;;;;;5057829;28;20032;-86
2021/12/13 06:17:42;;;;;;;14.60;6.88;;;4.60;99.90;;;;;;5064011;28;20378;-87
2021/12/13 06:20:19;;;;;;;14.80;5.93;;;4.60;99.90;;;;;;5067435;28;20059;-85
2021/12/13 06:22:46;;;;;;;16.23;6.68;;;4.60;99.90;;;;;;5079642;28;20025;-85
2021/12/13 06:25:23;;;;;;;13.38;5.78;;;4.60;99.90;;;;;;5045238;28;20119;-86
2021/12/13 06:27:54;;;;;;;15.77;6.50;;;4.60;99.90;;;;;;5068236;28;20074;-86
2021/12/13 06:30:35;;;;;;;14.80;5.25;;;4.60;99.90;;;;;;5029132;28;20020;-85
2021/12/13 06:33:12;;;;;;;14.75;5.38;;;4.60;99.90;;;;;;5030338;28;20048;-86
2021/12/13 06:35:55;;;;;;;11.63;5.15;;;4.60;99.90;;;;;;5012173;28;20034;-86
2021/12/13 06:38:38;;;;;;;13.95;5.43;;;4.60;99.90;;;;;;5031938;28;20082;-87
2021/12/13 06:41:19;;;;;;;12.23;4.80;;;4.60;99.90;;;;;;5032405;28;20037;-87
2021/12/13 06:43:51;;;;;;;10.73;4.63;;;4.60;99.90;;;;;;5050768;28;20047;-87
2021/12/13 06:46:22;;;;;;;11.32;4.82;;;4.60;99.90;;;;;;5064679;28;20468;-87
2021/12/13 06:48:54;;;;;;;10.40;5.13;;;4.60;99.90;;;;;;5044529;28;20394;-87
2021/12/13 06:51:35;;;;;;;11.77;4.85;;;4.60;99.90;;;;;;5042040;28;20476;-87
2021/12/13 06:54:05;;;;;;;9.98;4.95;;;4.60;99.90;;;;;;5053735;28;20127;-87
2021/12/13 06:56:33;;;;;;;8.90;4.72;;;4.60;99.90;;;;;;5067561;28;20033;-87
2021/12/13 06:59:02;;;;;;;10.57;4.88;;;4.60;99.90;;;;;;5068175;28;20041;-87
2021/12/13 07:01:29;;;;;;;9.82;4.55;;;4.60;99.90;;;;;;5051300;28;20053;-87
2021/12/13 07:04:03;;;;;;;9.57;4.43;;;4.60;99.90;;;;;;5050796;28;20029;-87
2021/12/13 07:06:30;;;;;;;7.30;4.07;;;4.60;99.90;;;;;;5047728;28;20029;-87
2021/12/13 07:09:10;;;;;;;8.45;4.72;;;4.60;99.90;;;;;;5049943;28;20033;-87
2021/12/13 07:11:57;;;;;;;8.55;4.10;;;4.60;99.90;;;;;;5054602;28;20060;-87
2021/12/13 07:14:37;;;;;;;10.02;5.03;;;4.60;99.90;;;;;;5048233;28;20037;-87
2021/12/13 07:17:32;;;;;;;9.48;4.68;;;4.60;99.90;;;;;;5077241;28;20033;-87
2021/12/13 07:19:59;;;;;;;8.40;4.30;;;4.60;99.90;;;;;;5049371;28;20087;-87
2021/12/13 07:22:29;;;;;;;7.72;4.30;;;4.60;99.90;;;;;;5031820;28;20512;-87
2021/12/13 07:25:10;;;;;;;8.95;4.13;;;4.60;99.90;;;;;;5047495;28;20043;-87
2021/12/13 07:27:48;;;;;;;6.85;3.83;;;4.60;99.90;;;;;;5064709;28;20374;-87
2021/12/13 07:30:28;;;;;;;8.98;4.18;;;4.60;99.90;;;;;;5060046;28;20117;-87
2021/12/13 07:32:58;;;;;;;7.68;3.83;;;4.60;99.90;;;;;;5061923;28;20035;-87
2021/12/13 07:35:30;;;;;;;11.63;3.42;;;4.60;99.90;;;;;;5056176;28;20056;-86
2021/12/13 07:38:03;;;;;;;6.00;3.20;;;4.60;99.90;;;;;;5061832;28;20071;-86
2021/12/13 07:40:42;;;;;;;6.38;3.20;;;4.60;99.90;;;;;;5067026;28;20033;-87
2021/12/13 07:43:17;;;;;;;7.88;3.95;;;4.60;99.90;;;;;;5073383;28;20035;-85
2021/12/13 07:46:00;;;;;;;8.73;3.85;;;4.70;99.90;;;;;;5068340;28;20021;-87
2021/12/13 07:48:50;;;;;;;6.85;3.78;;;4.70;99.90;;;;;;5059567;28;20025;-87
2021/12/13 07:51:15;;;;;;;7.57;3.65;;;4.70;99.90;;;;;;5085216;28;20025;-87
2021/12/13 07:53:56;;;;;;;6.63;3.50;;;4.70;99.90;;;;;;5067110;28;20013;-87
2021/12/13 07:56:36;;;;;;;7.38;3.15;;;4.80;99.90;;;;;;5065218;28;20515;-88
2021/12/13 07:59:29;;;;;;;7.53;3.75;;;4.80;99.90;;;;;;5071805;28;20037;-87
2021/12/13 08:02:09;;;;;;;8.30;3.97;;;4.80;99.90;;;;;;5071732;28;20056;-88
2021/12/13 08:04:40;;;;;;;8.13;3.25;;;4.80;99.90;;;;;;5088260;28;20524;-87
2021/12/13 08:07:10;;;;;;;7.70;4.22;;;4.90;99.90;;;;;;5071195;28;20024;-87
2021/12/13 08:09:52;;;;;;;8.07;3.75;;;4.90;99.90;;;;;;5075618;28;20033;-87
2021/12/13 08:12:23;;;;;;;7.60;3.72;;;4.90;99.90;;;;;;5052041;28;20040;-87
2021/12/13 08:14:51;;;;;;;8.23;3.70;;;4.90;99.90;;;;;;5052532;28;20025;-87
2021/12/13 08:17:27;;;;;;;9.68;4.93;;;4.90;99.90;;;;;;5051129;28;20093;-87
2021/12/13 08:19:57;;;;;;;11.80;4.38;;;5.00;99.90;;;;;;5051229;28;20029;-87
2021/12/13 08:22:28;;;;;;;;;;;5.00;99.90;;;;;;5051928;28;20025;-88
2021/12/13 08:24:58;;;;;;;8.43;4.35;;;5.00;99.90;;;;;;5068731;28;19912;-87
2021/12/13 08:27:50;;;;;;;6.65;4.07;;;5.00;99.90;;;;;;5052393;28;20429;-87
2021/12/13 08:30:23;;;;;;;7.65;4.35;;;5.00;99.90;;;;;;5061357;28;20035;-87
2021/12/13 08:33:06;;;;;;;9.38;4.38;;;5.00;99.90;;;;;;5088155;28;20025;-87
2021/12/13 08:36:15;;;;;;;8.77;4.72;;;5.00;99.90;;;;;;5070948;28;20028;-87
2021/12/13 08:39:06;;;;;;;7.80;4.15;;;5.10;99.90;;;;;;5065748;28;20036;-87
2021/12/13 08:41:55;;;;;;;10.82;4.60;;;5.10;99.90;;;;;;5066633;28;20028;-87
2021/12/13 08:44:26;;;;;;;11.70;5.07;;;5.10;99.90;;;;;;5065663;28;20118;-87
2021/12/13 08:46:52;;;;;;;10.98;4.65;;;5.10;99.90;;;;;;5031719;28;20487;-88
2021/12/13 08:49:23;;;;;;;12.93;4.93;;;5.10;99.90;;;;;;5062579;28;20032;-87
2021/12/13 08:51:55;;;;;;;9.73;4.93;;;5.20;99.90;;;;;;5070690;28;20035;-87
2021/12/13 08:54:32;;;;;;;9.45;4.20;;;5.20;99.90;;;;;;5070611;28;20033;-88
2021/12/13 08:56:59;;;;;;;9.98;4.85;;;5.30;99.90;;;;;;5070504;28;20036;-87
2021/12/13 08:59:27;;;;;;;12.88;6.22;;;5.40;99.90;;;;;;5068746;28;20025;-87
2021/12/13 09:02:06;;;;;;;14.52;5.80;;;5.40;99.90;;;;;;5070484;28;20029;-87
2021/12/13 09:04:52;;;;;;;12.38;5.45;;;5.50;99.90;;;;;;5050803;28;20025;-87
2021/12/13 09:07:21;;;;;;;8.07;4.15;;;5.50;99.90;;;;;;5086932;28;20029;-88
2021/12/13 09:09:48;;;;;;;10.27;4.50;;;5.60;99.90;;;;;;5070571;28;20029;-87
2021/12/13 09:12:24;;;;;;;10.32;5.00;;;5.60;99.90;;;;;;5054162;28;20039;-87
2021/12/13 09:14:52;;;;;;;9.63;4.65;;;5.70;99.90;;;;;;5075790;28;20025;-87
2021/12/13 09:17:37;;;;;;;8.35;4.03;;;5.70;99.90;;;;;;5060856;28;20036;-87
2021/12/13 09:20:12;;;;;;;9.43;4.88;;;5.80;99.90;;;;;;5050450;28;20060;-87
2021/12/13 09:22:48;;;;;;;9.32;4.53;;;5.80;99.90;;;;;;5055019;28;20021;-87
2021/12/13 09:25:19;;;;;;;9.13;4.75;;;5.90;99.90;;;;;;5061193;28;20044;-87
2021/12/13 09:27:56;;;;;;;12.30;5.35;;;5.90;99.90;;;;;;5049899;28;20048;-87
2021/12/13 09:30:40;;;;;;;14.70;4.80;;;6.00;99.90;;;;;;5051369;28;20095;-87
2021/12/13 09:33:22;;;;;;;8.95;4.35;;;6.00;99.90;;;;;;5050031;28;20025;-87
2021/12/13 09:35:59;;;;;;;7.68;4.57;;;6.00;99.90;;;;;;5053032;28;20242;-88
2021/12/13 09:38:39;;;;;;;12.38;5.03;;;6.10;99.90;;;;;;5049512;28;20025;-87
2021/12/13 09:41:04;;;;;;;9.45;5.05;;;6.10;99.90;;;;;;5033578;28;20374;-87
2021/12/13 09:43:42;;;;;;;9.32;5.20;;;6.20;99.90;;;;;;5049857;28;20032;-87
2021/12/13 09:46:09;;;;;;;9.93;5.70;;;6.20;99.90;;;;;;5032465;28;20025;-88
2021/12/13 09:48:41;;;;;;;10.88;5.13;;;6.20;99.90;;;;;;5053659;28;20051;-88
2021/12/13 09:51:13;;;;;;;9.68;5.38;;;6.20;99.90;;;;;;5067755;28;20048;-87
2021/12/13 09:53:40;;;;;;;7.45;4.20;;;6.20;99.90;;;;;;5032963;28;20040;-87
2021/12/13 09:56:12;;;;;;;7.70;4.50;;;6.30;99.90;;;;;;5032289;28;20418;-87
2021/12/13 09:58:43;;;;;;;9.45;5.22;;;6.30;99.90;;;;;;5050582;28;20029;-88
2021/12/13 10:01:16;;;;;;;9.63;5.15;;;6.40;99.90;;;;;;5033275;28;20057;-88
2021/12/13 10:03:49;;;;;;;14.15;6.82;;;6.50;99.90;;;;;;5064194;28;20120;-87
2021/12/13 10:06:18;;;;;;;12.77;7.05;;;6.60;99.90;;;;;;5068902;28;20412;-87
2021/12/13 10:08:52;;;;;;;10.00;6.10;;;6.60;99.90;;;;;;5049630;28;20097;-87
2021/12/13 10:11:26;;;;;;;10.52;5.13;;;6.60;99.90;;;;;;5033449;28;20325;-88
2021/12/13 10:13:52;;;;;;;9.95;5.45;;;6.70;99.90;;;;;;5049320;28;20056;-87
2021/12/13 10:16:23;;;;;;;10.38;5.53;;;6.80;99.90;;;;;;5048615;28;20502;-87
2021/12/13 10:18:51;;;;;;;8.48;4.65;;;6.80;99.90;;;;;;5063892;28;20035;-88
2021/12/13 10:21:28;;;;;;;9.50;4.65;;;6.90;99.90;;;;;;5086254;28;20101;-88
2021/12/13 10:24:01;;;;;;;7.68;4.93;;;6.90;99.90;;;;;;5069080;28;20028;-87
2021/12/13 10:26:35;;;;;;;7.57;4.50;;;7.00;99.90;;;;;;5066632;28;20481;-88
2021/12/13 10:29:05;;;;;;;7.93;4.35;;;7.00;99.90;;;;;;5069112;28;20405;-87
2021/12/13 10:31:45;;;;;;;6.90;4.28;;;7.10;99.90;;;;;;5052813;28;20115;-87
2021/12/13 10:34:14;;;;;;;9.60;4.57;;;7.10;99.90;;;;;;5035982;28;20378;-87
2021/12/13 10:36:44;;;;;;;6.75;4.95;;;7.10;99.90;;;;;;5068406;28;20032;-87
2021/12/13 10:39:23;;;;;;;8.30;4.60;;;7.10;99.90;;;;;;5048687;28;20433;-87
2021/12/13 10:41:51;;;;;;;9.20;4.75;;;7.10;99.90;;;;;;5045773;28;20022;-87
2021/12/13 10:44:26;;;;;;;7.93;4.55;;;7.10;99.90;;;;;;5012179;28;20033;-88
2021/12/13 10:46:58;;;;;;;6.32;4.00;;;7.10;99.90;;;;;;5028358;28;20033;-88
2021/12/13 10:49:27;;;;;;;7.22;3.92;;;7.10;99.90;;;;;;5055735;28;20405;-88
2021/12/13 10:52:01;;;;;;;6.47;4.15;;;7.20;99.90;;;;;;5068706;28;20036;-87
2021/12/13 10:54:34;;;;;;;7.45;4.10;;;7.20;99.90;;;;;;5081098;28;20401;-87
2021/12/13 10:57:09;;;;;;;7.22;3.63;;;7.20;99.90;;;;;;5048411;28;20028;-88
2021/12/13 10:59:36;;;;;;;5.47;4.18;;;7.20;99.90;;;;;;5031826;28;20120;-88
2021/12/13 11:02:12;;;;;;;7.20;3.92;;;7.20;99.90;;;;;;5032209;28;20497;-88
2021/12/13 11:04:43;;;;;;;4.95;3.40;;;7.20;99.90;;;;;;5049437;28;20490;-88
2021/12/13 11:07:11;;;;;;;6.13;3.60;;;7.20;99.90;;;;;;5065117;28;20033;-87
2021/12/13 11:09:41;;;;;;;6.20;3.90;;;7.30;99.90;;;;;;5047368;28;20097;-87
2021/12/13 11:12:17;;;;;;;6.78;3.83;;;7.40;99.90;;;;;;5049029;28;20124;-87
2021/12/13 11:14:47;;;;;;;7.22;4.28;;;7.40;99.90;;;;;;5031847;28;20083;-87
2021/12/13 11:17:18;;;;;;;6.70;3.72;;;7.50;99.90;;;;;;5031821;28;20025;-87
2021/12/13 11:19:49;;;;;;;7.07;4.10;;;7.50;99.90;;;;;;5048717;28;20055;-87
2021/12/13 11:22:25;;;;;;;7.43;4.10;;;7.50;99.90;;;;;;5032065;28;20025;-88
2021/12/13 11:24:55;;;;;;;4.22;3.30;;;7.60;99.90;;;;;;5059678;28;20021;-88
2021/12/13 11:27:31;;;;;;;6.38;4.28;;;7.60;99.90;;;;;;5084810;28;20024;-88
2021/12/13 11:29:57;;;;;;;9.57;3.92;;;7.60;99.90;;;;;;5085403;28;20025;-88
2021/12/13 11:32:34;;;;;;;6.65;3.75;;;7.60;99.90;;;;;;5068009;28;20459;-87
2021/12/13 11:35:06;;;;;;;7.35;3.97;;;7.60;99.90;;;;;;5068039;28;20074;-88
2021/12/13 11:37:45;;;;;;;5.68;3.58;;;7.60;99.90;;;;;;5067205;28;20051;-87
2021/12/13 11:40:40;;;;;;;6.38;3.67;;;7.60;99.90;;;;;;5083749;28;20028;-88
2021/12/13 11:43:21;;;;;;;6.32;3.90;;;7.60;99.90;;;;;;5068182;28;20111;-87
2021/12/13 11:45:46;;;;;;;7.80;4.25;;;7.60;99.90;;;;;;5069069;28;20043;-88
2021/12/13 11:48:12;;;;;;;7.43;4.30;;;7.60;99.90;;;;;;5068665;28;20029;-87
2021/12/13 11:51:05;;;;;;;7.47;4.32;;;7.70;99.90;;;;;;5067999;28;20154;-87
2021/12/13 11:54:06;;;;;;;5.70;3.67;;;7.70;99.90;;;;;;5067367;28;20025;-87
2021/12/13 11:57:04;;;;;;;6.30;3.53;;;7.70;99.90;;;;;;5055464;28;20199;-87
2021/12/13 11:59:36;;;;;;;6.05;3.45;;;7.80;99.90;;;;;;5079405;28;20083;-87
2021/12/13 12:02:28;;;;;;;5.88;3.83;;;7.90;99.90;;;;;;5049315;28;20021;-87
2021/12/13 12:05:16;;;;;;;7.25;4.40;;;7.90;99.90;;;;;;5050068;28;20509;-87
2021/12/13 12:07:59;;;;;;;6.78;3.78;;;8.00;99.90;;;;;;5047356;28;20044;-87
2021/12/13 12:11:10;;;;;;;7.05;3.50;;;8.00;99.90;;;;;;5051206;28;20115;-87
2021/12/13 12:14:01;;;;;;;4.72;3.15;;;8.10;99.90;;;;;;5053437;28;20040;-87
2021/12/13 12:16:28;;;;;;;5.30;3.28;;;8.10;99.90;;;;;;5066362;28;20123;-88
2021/12/13 12:18:56;;;;;;;4.35;3.20;;;8.20;99.90;;;;;;5068425;28;20032;-87
2021/12/13 12:21:54;;;;;;;4.75;3.05;;;8.20;99.90;;;;;;5024340;28;20043;-87
2021/12/13 12:24:27;;;;;;;6.03;3.60;;;8.20;99.90;;;;;;5037577;28;20025;-87
2021/12/13 12:27:03;;;;;;;4.18;3.03;;;8.30;99.90;;;;;;5066891;28;20040;-87
2021/12/13 12:29:32;;;;;;;4.65;3.28;;;8.30;99.90;;;;;;5046909;28;20102;-87
2021/12/13 12:32:27;;;;;;;4.33;2.87;;;8.30;99.90;;;;;;5035114;28;20405;-87
2021/12/13 12:35:03;;;;;;;7.22;3.42;;;8.30;99.90;;;;;;5030912;28;20059;-87
2021/12/13 12:37:36;;;;;;;6.70;3.10;;;8.30;99.90;;;;;;5047214;28;20084;-87
2021/12/13 12:40:07;;;;;;;6.88;3.90;;;8.30;99.90;;;;;;5062906;23;20044;-85
2021/12/13 12:42:36;;;;;;;8.25;3.13;;;8.40;99.90;;;;;;5076316;28;20050;-85
2021/12/13 12:45:23;;;;;;;5.88;3.75;;;8.40;99.90;;;;;;5059032;28;20056;-85
2021/12/13 12:48:02;;;;;;;6.55;3.47;;;8.40;99.90;;;;;;5075919;28;20074;-85
2021/12/13 12:50:35;;;;;;;5.38;3.65;;;8.40;99.90;;;;;;5065235;28;20037;-85
2021/12/13 12:53:13;;;;;;;5.68;3.60;;;8.40;99.90;;;;;;5039893;28;20037;-85
2021/12/13 12:55:48;;;;;;;7.47;3.10;;;8.50;99.90;;;;;;5047312;28;20032;-85
2021/12/13 12:58:42;;;;;;;5.22;2.97;;;8.50;99.90;;;;;;5065069;28;20032;-85
2021/12/13 13:01:29;;;;;;;4.80;2.65;;;8.60;99.90;;;;;;5044637;28;20029;-85
2021/12/13 13:04:14;;;;;;;4.85;2.78;;;8.50;99.90;;;;;;5055698;28;20501;-85
2021/12/13 13:07:12;;;;;;;5.03;3.08;;;8.50;99.90;;;;;;5062912;28;20044;-85
2021/12/13 13:09:38;;;;;;;3.92;2.53;;;8.40;99.90;;;;;;5055676;28;20040;-85
2021/12/13 13:12:05;;;;;;;3.38;2.25;;;8.40;99.90;;;;;;5077449;28;20024;-85
2021/12/13 13:14:32;;;;;;;4.43;2.47;;;8.40;99.90;;;;;;5023022;28;20055;-85
2021/12/13 13:17:02;;;;;;;4.35;2.75;;;8.40;99.90;;;;;;5045967;28;20041;-85
2021/12/13 13:19:35;;;;;;;5.10;2.58;;;8.50;99.90;;;;;;5036050;28;20041;-85
2021/12/13 13:22:21;;;;;;;6.00;2.72;;;8.40;99.90;;;;;;5040122;28;20029;-85
2021/12/13 13:24:51;;;;;;;4.65;2.78;;;8.40;99.90;;;;;;5059228;28;20028;-85
2021/12/13 13:27:20;;;;;;;6.35;3.05;;;8.40;99.90;;;;;;5057559;28;20122;-84
2021/12/13 13:29:45;;;;;;;7.63;3.95;;;8.40;99.90;;;;;;5056854;28;20028;-85
2021/12/13 13:32:14;;;;;;;6.85;3.72;;;8.40;99.90;;;;;;5040074;28;20452;-85
2021/12/13 13:34:43;;;;;;;7.03;3.67;;;8.40;99.90;;;;;;5024046;28;20033;-85
2021/12/13 13:37:16;;;;;;;7.45;4.15;;;8.30;99.90;;;;;;5056877;28;20067;-84
2021/12/13 13:39:52;;;;;;;7.38;3.40;;;8.30;99.90;;;;;;5057456;28;20036;-85
2021/12/13 13:42:25;;;;;;;5.55;3.35;;;8.30;99.90;;;;;;5057741;28;20028;-84
2021/12/13 13:44:59;;;;;;;5.78;3.33;;;8.20;99.90;;;;;;5075540;28;20021;-85
2021/12/13 13:47:37;;;;;;;5.00;2.90;;;8.20;99.90;;;;;;5056800;28;20079;-85